createdAt,value
2024-01-11T14:35:04.304Z,2982.00
2024-01-11T14:36:04.150Z,2961.00
2024-01-11T14:37:46.811Z,2923.00
2024-01-11T14:38:46.853Z,2931.00
2024-01-11T14:39:46.789Z,2927.00
2024-01-11T14:40:46.794Z,2911.00
2024-01-11T14:41:46.862Z,2844.00
2024-01-11T14:42:46.820Z,2675.00
2024-01-11T14:43:46.812Z,2295.00
2024-01-11T14:44:46.933Z,2162.00
2024-01-11T14:45:46.851Z,2211.00
2024-01-11T14:46:46.820Z,2184.00
2024-01-11T14:47:46.938Z,2069.00
2024-01-11T14:48:47.006Z,2060.00
2024-01-11T14:49:46.813Z,2194.00
2024-01-11T14:50:46.846Z,2223.00
2024-01-11T14:51:46.839Z,2098.00
2024-01-11T14:52:46.832Z,2080.00
2024-01-11T14:53:47.030Z,2059.00
2024-01-11T14:54:46.855Z,2039.00
2024-01-11T14:55:46.904Z,2054.00
2024-01-11T14:56:46.894Z,2056.00
2024-01-11T14:57:46.875Z,2047.00
2024-01-11T14:58:46.829Z,2051.00
2024-01-11T14:59:46.963Z,2055.00
2024-01-11T15:00:46.860Z,2060.00
2024-01-11T15:01:47.073Z,2064.00
2024-01-11T15:02:46.948Z,2064.00
2024-01-11T15:03:46.911Z,2063.00
2024-01-11T15:04:46.879Z,2038.00
2024-01-11T15:05:47.009Z,2035.00
2024-01-11T15:06:46.908Z,2032.00
2024-01-11T15:07:46.901Z,2028.00
2024-01-11T15:08:46.929Z,2016.00
2024-01-11T15:09:46.844Z,2000.00
2024-01-11T15:10:46.863Z,1994.00
2024-01-11T15:11:46.987Z,1982.00
2024-01-11T15:12:46.877Z,1982.00
2024-01-11T15:13:46.853Z,1980.00
2024-01-11T15:14:46.976Z,1981.00
2024-01-11T15:15:46.906Z,1975.00
2024-01-11T15:16:46.900Z,1973.00
2024-01-11T15:17:46.922Z,1969.00
2024-01-11T15:18:46.974Z,1968.00
2024-01-11T15:19:46.912Z,1966.00
2024-01-11T15:20:47.004Z,1961.00
2024-01-11T15:21:50.010Z,1962.00
2024-01-11T15:22:46.912Z,1956.00
2024-01-11T15:23:47.010Z,1950.00
2024-01-11T15:24:47.130Z,1950.00
2024-01-11T15:25:46.939Z,1940.00
2024-01-11T15:26:47.040Z,1928.00
2024-01-11T15:27:46.910Z,1922.00
2024-01-11T15:28:46.958Z,1920.00
2024-01-11T15:29:47.043Z,1918.00
2024-01-11T15:30:47.017Z,1916.00
2024-01-11T15:31:47.711Z,1912.00
2024-01-11T15:32:47.094Z,1911.00
2024-01-11T15:33:47.186Z,1906.00
2024-01-11T15:34:47.008Z,1908.00
2024-01-11T15:35:47.032Z,1910.00
2024-01-11T15:36:46.957Z,1903.00
2024-01-11T15:37:46.979Z,1901.00
2024-01-11T15:38:46.981Z,1902.00
2024-01-11T15:39:46.923Z,1897.00
2024-01-11T15:40:46.955Z,1894.00
2024-01-11T15:41:46.965Z,1894.00
2024-01-11T15:42:46.966Z,1892.00
2024-01-11T15:43:46.962Z,1890.00
2024-01-11T15:44:46.977Z,1886.00
2024-01-11T15:45:47.008Z,1885.00
2024-01-11T15:46:46.940Z,1882.00
2024-01-11T15:47:47.032Z,1880.00
2024-01-11T15:48:47.039Z,1878.00
2024-01-11T15:49:46.984Z,1877.00
2024-01-11T15:50:46.974Z,1874.00
2024-01-11T15:51:46.992Z,1876.00
2024-01-11T15:52:47.041Z,1871.00
2024-01-11T15:53:47.088Z,1864.00
2024-01-11T15:54:47.095Z,1863.00
2024-01-11T15:55:47.163Z,1862.00
2024-01-11T15:56:47.263Z,1861.00
2024-01-11T15:57:47.180Z,1858.00
2024-01-11T15:58:47.224Z,1855.00
2024-01-11T15:59:47.305Z,1852.00
2024-01-11T16:00:47.340Z,1847.00
2024-01-11T16:01:56.553Z,1846.00
2024-01-11T16:02:48.424Z,1842.00
2024-01-11T16:03:47.399Z,1840.00
2024-01-11T16:04:47.358Z,1838.00
2024-01-11T16:05:47.435Z,1833.00
2024-01-11T16:06:47.444Z,1827.00
2024-01-11T16:07:47.357Z,1826.00
2024-01-11T16:08:47.385Z,1828.00
2024-01-11T16:09:47.358Z,1827.00
2024-01-11T16:10:47.463Z,1824.00
2024-01-11T16:11:47.477Z,1825.00
2024-01-11T16:12:47.381Z,1823.00
2024-01-11T16:13:47.437Z,1819.00
2024-01-11T16:14:47.411Z,1819.00
2024-01-11T16:15:47.405Z,1813.00
2024-01-11T16:16:48.429Z,1814.00
2024-01-11T16:17:47.599Z,1812.00
2024-01-11T16:18:47.601Z,1808.00
2024-01-11T16:19:47.595Z,1807.00
2024-01-11T16:20:47.788Z,1810.00
2024-01-11T16:21:47.704Z,1809.00
2024-01-11T16:22:47.756Z,1811.00
2024-01-11T16:23:47.791Z,1809.00
2024-01-11T16:24:47.811Z,1808.00
2024-01-11T16:25:47.938Z,1803.00
2024-01-11T16:26:48.055Z,1798.00
2024-01-11T16:27:47.977Z,1798.00
2024-01-11T16:28:48.036Z,1798.00
2024-01-11T16:29:48.104Z,1798.00
2024-01-11T16:30:48.263Z,1797.00
2024-01-11T16:31:48.200Z,1796.00
2024-01-11T16:32:48.277Z,1797.00
2024-01-11T16:33:48.320Z,1797.00
2024-01-11T16:34:48.329Z,1794.00
2024-01-11T16:35:55.733Z,1788.00
2024-01-11T16:36:49.422Z,1775.00
2024-01-11T16:37:48.401Z,1776.00
2024-01-11T16:38:48.516Z,1778.00
2024-01-11T16:39:48.415Z,1778.00
2024-01-11T16:40:48.391Z,1782.00
2024-01-11T16:41:48.503Z,1781.00
2024-01-11T16:42:48.534Z,1780.00
2024-01-11T16:43:48.473Z,1777.00
2024-01-11T16:44:48.423Z,1774.00
2024-01-11T16:45:48.477Z,1772.00
2024-01-11T16:46:48.526Z,1772.00
2024-01-11T16:47:48.685Z,1770.00
2024-01-11T16:48:48.813Z,1766.00
2024-01-11T16:49:48.724Z,1766.00
2024-01-11T16:50:48.849Z,1767.00
2024-01-11T16:51:50.887Z,1769.00
2024-01-11T16:52:48.907Z,1764.00
2024-01-11T16:53:49.201Z,1758.00
2024-01-11T16:54:49.086Z,1752.00
2024-01-11T16:55:49.134Z,1751.00
2024-01-11T16:56:49.412Z,1751.00
2024-01-11T16:57:49.248Z,1752.00
2024-01-11T16:58:49.303Z,1746.00
2024-01-11T16:59:49.468Z,1745.00
2024-01-11T17:00:49.459Z,1745.00
2024-01-11T17:01:49.513Z,1741.00
2024-01-11T17:02:49.667Z,1737.00
2024-01-11T17:03:49.772Z,1736.00
2024-01-11T17:04:49.742Z,1735.00
2024-01-11T17:05:49.863Z,1732.00
2024-01-11T17:06:49.859Z,1736.00
2024-01-11T17:07:49.940Z,1732.00
2024-01-11T17:08:50.294Z,1730.00
2024-01-11T17:09:50.089Z,1727.00
2024-01-11T17:10:50.169Z,1725.00
2024-01-11T17:11:50.300Z,1727.00
2024-01-11T17:12:50.323Z,1725.00
2024-01-11T17:13:50.395Z,1723.00
2024-01-11T17:14:51.973Z,1721.00
2024-01-11T17:15:50.533Z,1719.00
2024-01-11T17:16:50.586Z,1716.00
2024-01-11T17:17:50.774Z,1715.00
2024-01-11T17:18:50.888Z,1714.00
2024-01-11T17:19:50.816Z,1717.00
2024-01-11T17:20:50.888Z,1714.00
2024-01-11T17:21:50.921Z,1717.00
2024-01-11T17:22:52.976Z,1712.00
2024-01-11T17:23:51.062Z,1708.00
2024-01-11T17:24:51.064Z,1706.00
2024-01-11T17:25:51.145Z,1709.00
2024-01-11T17:26:51.242Z,1709.00
2024-01-11T17:27:51.205Z,1708.00
2024-01-11T17:28:51.256Z,1706.00
2024-01-11T17:29:51.410Z,1701.00
2024-01-11T17:30:51.477Z,1704.00
2024-01-11T17:31:51.417Z,1708.00
2024-01-11T17:32:51.481Z,1707.00
2024-01-11T17:33:51.589Z,1708.00
2024-01-11T17:34:51.539Z,1709.00
2024-01-11T17:35:51.557Z,1702.00
2024-01-11T17:36:51.536Z,1700.00
2024-01-11T17:37:51.570Z,1697.00
2024-01-11T17:38:51.674Z,1691.00
2024-01-11T17:39:51.734Z,1690.00
2024-01-11T17:40:51.654Z,1689.00
2024-01-11T17:41:51.921Z,1683.00
2024-01-11T17:42:51.710Z,1686.00
2024-01-11T17:43:51.771Z,1683.00
2024-01-11T17:44:51.947Z,1678.00
2024-01-11T17:45:51.790Z,1680.00
2024-01-11T17:46:51.776Z,1681.00
2024-01-11T17:47:51.927Z,1674.00
2024-01-11T17:48:52.117Z,1670.00
2024-01-11T17:49:51.832Z,1664.00
2024-01-11T17:50:51.835Z,1665.00
2024-01-11T17:51:51.809Z,1662.00
2024-01-11T17:52:52.353Z,1658.00
2024-01-11T17:53:51.892Z,1659.00
2024-01-11T17:54:51.827Z,1658.00
2024-01-11T17:55:51.835Z,1653.00
2024-01-11T17:56:52.034Z,1651.00
2024-01-11T17:57:51.870Z,1647.00
2024-01-11T17:58:51.842Z,1648.00
2024-01-11T17:59:51.899Z,1644.00
2024-01-11T18:00:51.850Z,1643.00
2024-01-11T18:01:51.899Z,1642.00
2024-01-11T18:02:51.983Z,1642.00
2024-01-11T18:03:52.058Z,1639.00
2024-01-11T18:04:51.926Z,1642.00
2024-01-11T18:05:52.083Z,1638.00
2024-01-11T18:06:52.261Z,1631.00
2024-01-11T18:07:51.920Z,1629.00
2024-01-11T18:08:52.158Z,1632.00
2024-01-11T18:09:51.923Z,1633.00
2024-01-11T18:10:51.987Z,1633.00
2024-01-11T18:11:52.063Z,1627.00
2024-01-11T18:12:51.942Z,1617.00
2024-01-11T18:13:51.945Z,1621.00
2024-01-11T18:14:52.050Z,1615.00
2024-01-11T18:15:52.131Z,1615.00
2024-01-11T18:16:51.976Z,1615.00
2024-01-11T18:17:52.060Z,1609.00
2024-01-11T18:18:52.208Z,1604.00
2024-01-11T18:19:52.068Z,1601.00
2024-01-11T18:20:52.111Z,1597.00
2024-01-11T18:21:52.041Z,1591.00
2024-01-11T18:22:52.035Z,1592.00
2024-01-11T18:23:52.075Z,1592.00
2024-01-11T18:24:52.077Z,1589.00
2024-01-11T18:25:52.097Z,1586.00
2024-01-11T18:26:52.245Z,1587.00
2024-01-11T18:27:52.125Z,1585.00
2024-01-11T18:28:52.146Z,1584.00
2024-01-11T18:29:52.250Z,1586.00
2024-01-11T18:30:52.201Z,1583.00
2024-01-11T18:31:52.198Z,1586.00
2024-01-11T18:32:52.317Z,1582.00
2024-01-11T18:33:52.282Z,1581.00
2024-01-11T18:34:52.256Z,1579.00
2024-01-11T18:35:52.340Z,1577.00
2024-01-11T18:36:52.275Z,1574.00
2024-01-11T18:37:58.434Z,1570.00
2024-01-11T18:38:52.350Z,1573.00
2024-01-11T18:39:52.326Z,1567.00
2024-01-11T18:40:52.321Z,1564.00
2024-01-11T18:41:52.450Z,1563.00
2024-01-11T18:42:52.348Z,1557.00
2024-01-11T18:43:52.331Z,1556.00
2024-01-11T18:44:52.452Z,1557.00
2024-01-11T18:45:52.714Z,1556.00
2024-01-11T18:46:52.329Z,1550.00
2024-01-11T18:47:58.570Z,1553.00
2024-01-11T18:48:52.461Z,1548.00
2024-01-11T18:49:52.395Z,1547.00
2024-01-11T18:50:52.401Z,1549.00
2024-01-11T18:51:52.338Z,1555.00
2024-01-11T18:52:52.340Z,1554.00
2024-01-11T18:53:52.526Z,1553.00
2024-01-11T18:54:54.624Z,1551.00
2024-01-11T18:55:53.347Z,1541.00
2024-01-11T18:56:52.445Z,1533.00
2024-01-11T18:57:52.339Z,1533.00
2024-01-11T18:58:52.364Z,1535.00
2024-01-11T18:59:52.388Z,1537.00
2024-01-11T19:00:52.405Z,1541.00
2024-01-11T19:01:52.341Z,1536.00
2024-01-11T19:02:52.359Z,1540.00
2024-01-11T19:03:52.438Z,1526.00
2024-01-11T19:04:52.399Z,1523.00
2024-01-11T19:05:52.553Z,1521.00
2024-01-11T19:06:52.503Z,1525.00
2024-01-11T19:07:52.342Z,1522.00
2024-01-11T19:08:52.473Z,1524.00
2024-01-11T19:09:52.379Z,1522.00
2024-01-11T19:10:52.363Z,1521.00
2024-01-11T19:11:52.438Z,1516.00
2024-01-11T19:12:52.479Z,1515.00
2024-01-11T19:13:52.509Z,1514.00
2024-01-11T19:14:52.985Z,1510.00
2024-01-11T19:15:52.585Z,1511.00
2024-01-11T19:16:52.634Z,1506.00
2024-01-11T19:17:53.005Z,1504.00
2024-01-11T19:18:53.130Z,1503.00
2024-01-11T19:19:52.813Z,1504.00
2024-01-11T19:20:52.898Z,1504.00
2024-01-11T19:21:52.841Z,1502.00
2024-01-11T19:22:52.929Z,1503.00
2024-01-11T19:23:53.042Z,1499.00
2024-01-11T19:24:52.967Z,1495.00
2024-01-11T19:25:53.031Z,1493.00
2024-01-11T19:26:53.137Z,1492.00
2024-01-11T19:27:53.119Z,1491.00
2024-01-11T19:28:53.180Z,1487.00
2024-01-11T19:29:53.266Z,1482.00
2024-01-11T19:30:53.297Z,1472.00
2024-01-11T19:31:53.289Z,1473.00
2024-01-11T19:32:53.429Z,1473.00
2024-01-11T19:33:53.443Z,1473.00
2024-01-11T19:34:53.475Z,1469.00
2024-01-11T19:35:53.574Z,1467.00
2024-01-11T19:36:53.530Z,1465.00
2024-01-11T19:37:53.630Z,1462.00
2024-01-11T19:38:53.689Z,1462.00
2024-01-11T19:39:53.718Z,1458.00
2024-01-11T19:40:53.744Z,1458.00
2024-01-11T19:41:53.855Z,1458.00
2024-01-11T19:42:53.828Z,1456.00
2024-01-11T19:43:54.822Z,1452.00
2024-01-11T19:44:53.883Z,1454.00
2024-01-11T19:45:54.993Z,1457.00
2024-01-11T19:46:53.988Z,1460.00
2024-01-11T19:47:54.174Z,1458.00
2024-01-11T19:48:54.164Z,1459.00
2024-01-11T19:49:54.131Z,1454.00
2024-01-11T19:50:54.229Z,1455.00
2024-01-11T19:51:54.262Z,1455.00
2024-01-11T19:52:54.298Z,1451.00
2024-01-11T19:53:54.415Z,1447.00
2024-01-11T19:54:54.436Z,1447.00
2024-01-11T19:55:54.469Z,1443.00
2024-01-11T19:56:54.597Z,1441.00
2024-01-11T19:57:54.590Z,1440.00
2024-01-11T19:58:54.645Z,1438.00
2024-01-11T19:59:54.742Z,1436.00
2024-01-11T20:00:54.799Z,1435.00
2024-01-11T20:01:55.837Z,1431.00
2024-01-11T20:02:54.929Z,1425.00
2024-01-11T20:03:54.904Z,1418.00
2024-01-11T20:04:54.954Z,1415.00
2024-01-11T20:05:55.109Z,1415.00
2024-01-11T20:06:55.155Z,1417.00
2024-01-11T20:07:55.125Z,1416.00
2024-01-11T20:08:55.230Z,1414.00
2024-01-11T20:09:55.238Z,1399.00
2024-01-11T20:10:55.310Z,1408.00
2024-01-11T20:11:55.504Z,1417.00
2024-01-11T20:12:55.431Z,1415.00
2024-01-11T20:13:55.555Z,1412.00
2024-01-11T20:14:55.637Z,1410.00
2024-01-11T20:15:55.595Z,1407.00
2024-01-11T20:16:55.688Z,1403.00
2024-01-11T20:17:55.781Z,1395.00
2024-01-11T20:18:55.895Z,1394.00
2024-01-11T20:19:55.945Z,1387.00
2024-01-11T20:20:55.974Z,1392.00
2024-01-11T20:21:55.976Z,1392.00
2024-01-11T20:22:56.032Z,1389.00
2024-01-11T20:23:56.139Z,1388.00
2024-01-11T20:24:56.199Z,1387.00
2024-01-11T20:25:56.192Z,1385.00
2024-01-11T20:26:57.042Z,1385.00
2024-01-11T20:27:56.314Z,1385.00
2024-01-11T20:28:56.387Z,1380.00
2024-01-11T20:29:56.496Z,1376.00
2024-01-11T20:30:56.528Z,1380.00
2024-01-11T20:31:56.564Z,1379.00
2024-01-11T20:32:56.689Z,1383.00
2024-01-11T20:33:56.799Z,1384.00
2024-01-11T20:34:56.782Z,1382.00
2024-01-11T20:35:56.929Z,1379.00
2024-01-11T20:36:56.899Z,1374.00
2024-01-11T20:37:56.964Z,1374.00
2024-01-11T20:38:57.185Z,1371.00
2024-01-11T20:39:57.103Z,1371.00
2024-01-11T20:40:57.163Z,1368.00
2024-01-11T20:41:57.269Z,1367.00
2024-01-11T20:42:57.326Z,1361.00
2024-01-11T20:43:57.374Z,1361.00
2024-01-11T20:44:57.552Z,1365.00
2024-01-11T20:45:57.487Z,1357.00
2024-01-11T20:46:57.569Z,1357.00
2024-01-11T20:47:57.757Z,1357.00
2024-01-11T20:48:57.757Z,1357.00
2024-01-11T20:49:57.879Z,1358.00
2024-01-11T20:50:57.835Z,1359.00
2024-01-11T20:51:57.898Z,1356.00
2024-01-11T20:52:57.996Z,1351.00
2024-01-11T20:53:58.079Z,1348.00
2024-01-11T20:54:58.136Z,1348.00
2024-01-11T20:55:58.172Z,1342.00
2024-01-11T20:56:58.321Z,1335.00
2024-01-11T20:57:58.316Z,1326.00
2024-01-11T20:58:58.412Z,1318.00
2024-01-11T20:59:58.480Z,1315.00
2024-01-11T21:00:58.570Z,1301.00
2024-01-11T21:01:58.585Z,1296.00
2024-01-11T21:02:58.710Z,1294.00
2024-01-11T21:03:58.765Z,1299.00
2024-01-11T21:04:58.821Z,1300.00
2024-01-11T21:05:58.922Z,1299.00
2024-01-11T21:06:59.037Z,1299.00
2024-01-11T21:08:00.998Z,1295.00
2024-01-11T21:08:59.127Z,1294.00
2024-01-11T21:09:59.106Z,1298.00
2024-01-11T21:10:59.152Z,1291.00
2024-01-11T21:11:59.298Z,1292.00
2024-01-11T21:12:59.261Z,1295.00
2024-01-11T21:13:59.314Z,1294.00
2024-01-11T21:14:59.436Z,1293.00
2024-01-11T21:15:59.432Z,1296.00
2024-01-11T21:16:59.475Z,1295.00
2024-01-11T21:17:59.628Z,1293.00
2024-01-11T21:18:59.698Z,1291.00
2024-01-11T21:19:59.718Z,1293.00
2024-01-11T21:20:59.735Z,1290.00
2024-01-11T21:22:00.781Z,1288.00
2024-01-11T21:22:59.826Z,1288.00
2024-01-11T21:23:59.915Z,1287.00
2024-01-11T21:24:59.943Z,1287.00
2024-01-11T21:25:59.971Z,1287.00
2024-01-11T21:27:00.095Z,1284.00
2024-01-11T21:28:00.093Z,1286.00
2024-01-11T21:29:00.105Z,1283.00
2024-01-11T21:30:00.234Z,1284.00
2024-01-11T21:31:00.316Z,1279.00
2024-01-11T21:32:00.321Z,1275.00
2024-01-11T21:33:00.420Z,1272.00
2024-01-11T21:34:00.406Z,1275.00
2024-01-11T21:35:00.473Z,1273.00
2024-01-11T21:36:00.468Z,1271.00
2024-01-11T21:37:00.521Z,1270.00
2024-01-11T21:38:00.559Z,1272.00
2024-01-11T21:39:00.650Z,1266.00
2024-01-11T21:40:00.652Z,1263.00
2024-01-11T21:41:00.695Z,1259.00
2024-01-11T21:42:00.751Z,1259.00
2024-01-11T21:43:00.813Z,1258.00
2024-01-11T21:44:01.108Z,1256.00
2024-01-11T21:45:00.928Z,1248.00
2024-01-11T21:46:00.942Z,1247.00
2024-01-11T21:47:00.974Z,1247.00
2024-01-11T21:48:01.125Z,1248.00
2024-01-11T21:49:01.149Z,1244.00
2024-01-11T21:50:01.193Z,1244.00
2024-01-11T21:51:04.392Z,1246.00
2024-01-11T21:52:01.160Z,1247.00
2024-01-11T21:53:01.145Z,1248.00
2024-01-11T21:54:01.176Z,1246.00
2024-01-11T21:55:01.163Z,1248.00
2024-01-11T21:56:01.176Z,1247.00
2024-01-11T21:57:01.181Z,1245.00
2024-01-11T21:58:01.173Z,1242.00
2024-01-11T21:59:01.183Z,1237.00
2024-01-11T22:00:01.268Z,1236.00
2024-01-11T22:01:01.307Z,1235.00
2024-01-11T22:02:01.201Z,1236.00
2024-01-11T22:03:01.258Z,1237.00
2024-01-11T22:04:01.208Z,1238.00
2024-01-11T22:05:01.174Z,1237.00
2024-01-11T22:06:01.278Z,1233.00
2024-01-11T22:07:01.219Z,1234.00
2024-01-11T22:08:01.186Z,1233.00
2024-01-11T22:09:01.283Z,1233.00
2024-01-11T22:10:01.179Z,1231.00
2024-01-11T22:11:01.168Z,1230.00
2024-01-11T22:12:01.227Z,1231.00
2024-01-11T22:13:01.228Z,1229.00
2024-01-11T22:14:01.183Z,1228.00
2024-01-11T22:15:02.533Z,1226.00
2024-01-11T22:16:01.300Z,1224.00
2024-01-11T22:17:01.351Z,1218.00
2024-01-11T22:18:01.490Z,1216.00
2024-01-11T22:19:01.564Z,1214.00
2024-01-11T22:20:01.594Z,1211.00
2024-01-11T22:21:01.605Z,1208.00
2024-01-11T22:22:01.540Z,1205.00
2024-01-11T22:23:01.587Z,1201.00
2024-01-11T22:24:01.656Z,1200.00
2024-01-11T22:25:01.675Z,1207.00
2024-01-11T22:26:01.706Z,1203.00
2024-01-11T22:27:01.748Z,1204.00
2024-01-11T22:28:01.789Z,1204.00
2024-01-11T22:29:01.835Z,1203.00
2024-01-11T22:30:01.863Z,1205.00
2024-01-11T22:31:01.920Z,1205.00
2024-01-11T22:32:01.926Z,1204.00
2024-01-11T22:33:02.174Z,1199.00
2024-01-11T22:34:02.036Z,1200.00
2024-01-11T22:35:02.041Z,1200.00
2024-01-11T22:36:02.079Z,1200.00
2024-01-11T22:37:02.130Z,1201.00
2024-01-11T22:38:02.162Z,1202.00
2024-01-11T22:39:02.203Z,1198.00
2024-01-11T22:40:02.220Z,1195.00
2024-01-11T22:41:02.253Z,1191.00
2024-01-11T22:42:03.623Z,1192.00
2024-01-11T22:43:02.311Z,1192.00
2024-01-11T22:44:02.266Z,1192.00
2024-01-11T22:45:02.301Z,1191.00
2024-01-11T22:46:02.281Z,1193.00
2024-01-11T22:47:02.302Z,1193.00
2024-01-11T22:48:02.391Z,1193.00
2024-01-11T22:49:02.358Z,1192.00
2024-01-11T22:50:02.286Z,1196.00
2024-01-11T22:51:02.363Z,1194.00
2024-01-11T22:52:02.308Z,1192.00
2024-01-11T22:53:02.300Z,1189.00
2024-01-11T22:54:02.353Z,1191.00
2024-01-11T22:55:02.307Z,1191.00
2024-01-11T22:56:02.287Z,1191.00
2024-01-11T22:57:02.300Z,1192.00
2024-01-11T22:58:07.368Z,1192.00
2024-01-11T22:59:02.299Z,1189.00
2024-01-11T23:00:02.311Z,1182.00
2024-01-11T23:01:02.357Z,1179.00
2024-01-11T23:02:02.319Z,1179.00
2024-01-11T23:03:02.397Z,1181.00
2024-01-11T23:04:02.592Z,1184.00
2024-01-11T23:05:02.424Z,1185.00
2024-01-11T23:06:02.491Z,1182.00
2024-01-11T23:07:02.357Z,1183.00
2024-01-11T23:08:02.335Z,1181.00
2024-01-11T23:09:02.412Z,1181.00
2024-01-11T23:10:02.340Z,1182.00
2024-01-11T23:11:02.407Z,1181.00
2024-01-11T23:12:03.406Z,1182.00
2024-01-11T23:13:02.596Z,1181.00
2024-01-11T23:14:02.640Z,1180.00
2024-01-11T23:15:02.702Z,1175.00
2024-01-11T23:16:02.672Z,1173.00
2024-01-11T23:17:02.728Z,1171.00
2024-01-11T23:18:02.949Z,1170.00
2024-01-11T23:19:02.841Z,1171.00
2024-01-11T23:20:02.795Z,1172.00
2024-01-11T23:21:03.048Z,1171.00
2024-01-11T23:22:02.875Z,1167.00
2024-01-11T23:23:02.884Z,1163.00
2024-01-11T23:24:03.029Z,1163.00
2024-01-11T23:25:02.987Z,1165.00
2024-01-11T23:26:02.968Z,1163.00
2024-01-11T23:27:03.030Z,1157.00
2024-01-11T23:28:03.046Z,1155.00
2024-01-11T23:29:03.087Z,1154.00
2024-01-11T23:30:03.142Z,1153.00
2024-01-11T23:31:03.196Z,1154.00
2024-01-11T23:32:03.158Z,1155.00
2024-01-11T23:33:03.503Z,1152.00
2024-01-11T23:34:03.393Z,1152.00
2024-01-11T23:35:03.269Z,1153.00
2024-01-11T23:36:03.320Z,1156.00
2024-01-11T23:37:03.312Z,1156.00
2024-01-11T23:38:05.334Z,1153.00
2024-01-11T23:39:03.433Z,1151.00
2024-01-11T23:40:03.424Z,1144.00
2024-01-11T23:41:03.454Z,1145.00
2024-01-11T23:42:03.498Z,1143.00
2024-01-11T23:43:03.524Z,1144.00
2024-01-11T23:44:03.546Z,1146.00
2024-01-11T23:45:03.781Z,1142.00
2024-01-11T23:46:03.580Z,1140.00
2024-01-11T23:47:03.616Z,1139.00
2024-01-11T23:48:03.730Z,1136.00
2024-01-11T23:49:03.770Z,1133.00
2024-01-11T23:50:03.789Z,1135.00
2024-01-11T23:51:03.830Z,1135.00
2024-01-11T23:52:03.794Z,1134.00
2024-01-11T23:53:03.799Z,1134.00
2024-01-11T23:54:03.882Z,1132.00
2024-01-11T23:55:03.911Z,1130.00
2024-01-11T23:56:03.903Z,1128.00
2024-01-11T23:57:03.984Z,1129.00
2024-01-11T23:58:04.028Z,1125.00
2024-01-11T23:59:03.977Z,1119.00
